Time;durP1;ratioP1;P1;durP2;ratioP2;P2;SDS_P1;SDS_P2;PMS_P1;PMS_P2;Temp;Humidity;BMP_temperature;BMP_pressure;BME280_temperature;BME280_humidity;BME280_pressure;Samples;Min_cycle;Max_cycle;Signal;HPM_P1;HPM_P2
2023/12/26 00:00:50;;;;;;;4.53;1.90;;;9.90;99.90;;;7.92;100.00;99846.78;10442500;27;96591;-93
2023/12/26 00:05:54;;;;;;;3.80;1.83;;;9.80;99.90;;;7.86;100.00;99842.16;10455504;27;97438;-94
2023/12/26 00:10:58;;;;;;;4.03;1.50;;;9.80;99.90;;;7.80;100.00;99837.50;10445860;27;98240;-94
2023/12/26 00:16:02;;;;;;;6.97;1.90;;;9.70;99.90;;;7.74;100.00;99841.59;10461071;27;97417;-94
2023/12/26 00:21:06;;;;;;;4.67;1.70;;;9.70;99.90;;;7.62;100.00;99813.78;10453167;27;96604;-94
2023/12/26 00:26:09;;;;;;;6.40;1.97;;;9.60;99.90;;;7.68;100.00;99823.72;10441227;27;97182;-94
2023/12/26 00:31:12;;;;;;;2.83;1.77;;;9.60;99.90;;;7.73;100.00;99823.22;10417134;27;98075;-93
2023/12/26 00:36:18;;;;;;;7.80;2.20;;;9.60;99.90;;;7.74;100.00;99820.44;10442984;27;97648;-94
2023/12/26 00:41:21;;;;;;;3.87;1.70;;;9.70;99.90;;;7.83;100.00;99831.03;10431813;27;96600;-94
2023/12/26 00:46:26;;;;;;;8.73;2.43;;;9.70;99.90;;;7.84;100.00;99833.50;10451087;27;97755;-96
2023/12/26 00:51:30;;;;;;;6.43;1.97;;;9.80;99.90;;;7.94;100.00;99842.16;10454344;27;97151;-94
2023/12/26 00:56:33;;;;;;;6.53;2.13;;;9.80;99.90;;;8.06;100.00;99832.13;10448873;27;98006;-95
2023/12/26 01:01:36;;;;;;;7.00;2.00;;;9.90;99.90;;;8.12;100.00;99835.94;10456058;27;98123;-95
2023/12/26 01:06:39;;;;;;;7.20;2.33;;;10.00;99.90;;;8.13;100.00;99833.13;10437974;27;97406;-95
2023/12/26 01:11:43;;;;;;;9.40;2.23;;;10.00;99.90;;;8.17;100.00;99837.13;10436514;27;96802;-94
2023/12/26 01:16:50;;;;;;;5.23;2.03;;;10.00;99.90;;;8.19;100.00;99840.44;10451497;27;97538;-95
2023/12/26 01:21:53;;;;;;;8.20;1.70;;;10.10;99.90;;;8.21;100.00;99814.63;10447993;27;97176;-94
2023/12/26 01:26:56;;;;;;;6.53;2.30;;;10.10;99.90;;;8.33;100.00;99808.00;10451135;27;96735;-93
2023/12/26 01:32:01;;;;;;;4.17;1.87;;;10.20;99.90;;;8.48;100.00;99773.00;10460153;27;97879;-95
2023/12/26 01:37:06;;;;;;;4.27;2.20;;;10.30;99.90;;;8.67;100.00;99772.66;10467306;27;97291;-94
2023/12/26 01:42:10;;;;;;;6.03;2.40;;;10.50;99.90;;;8.71;100.00;99795.19;10445620;27;98261;-96
2023/12/26 01:47:16;;;;;;;8.10;2.17;;;10.60;99.90;;;8.82;100.00;99808.13;10461610;27;96615;-94
2023/12/26 01:52:20;;;;;;;6.10;2.40;;;10.60;99.90;;;8.85;100.00;99807.75;10450846;27;98173;-92
2023/12/26 01:57:24;;;;;;;5.93;2.03;;;10.70;99.90;;;8.93;100.00;99784.91;10443006;27;96660;-93
2023/12/26 02:02:28;;;;;;;5.13;1.83;;;10.80;99.90;;;9.03;100.00;99806.75;10457141;27;96644;-93
2023/12/26 02:07:31;;;;;;;6.63;1.70;;;10.90;99.90;;;9.03;100.00;99802.28;10438470;27;96878;-95
2023/12/26 02:12:35;;;;;;;3.47;1.37;;;10.90;99.90;;;8.92;100.00;99815.06;10456969;27;97941;-94
2023/12/26 02:17:41;;;;;;;5.97;1.80;;;10.80;99.90;;;8.70;100.00;99819.22;10458222;27;96746;-95
2023/12/26 02:22:45;;;;;;;4.67;1.63;;;10.70;99.90;;;8.36;100.00;99814.84;10449273;27;96974;-95
2023/12/26 02:27:49;;;;;;;3.80;1.50;;;10.40;99.90;;;8.18;100.00;99808.84;10459548;27;96711;-95
2023/12/26 02:32:54;;;;;;;6.30;1.50;;;10.20;99.90;;;8.14;100.00;99805.66;10505850;27;96362;-94
2023/12/26 02:38:01;;;;;;;6.57;2.40;;;10.10;99.90;;;7.84;100.00;99814.16;10443604;27;96494;-95
2023/12/26 02:43:05;;;;;;;9.83;2.93;;;9.90;99.90;;;7.40;100.00;99820.41;10437549;27;96576;-95
2023/12/26 02:48:08;;;;;;;5.83;3.23;;;9.50;99.90;;;6.96;100.00;99817.00;10453086;27;98262;-95
2023/12/26 02:53:12;;;;;;;9.10;3.70;;;9.00;99.90;;;6.66;100.00;99810.31;10452628;27;96554;-93
2023/12/26 02:58:15;;;;;;;12.13;4.10;;;8.70;99.90;;;6.38;100.00;99820.13;10435669;27;96945;-93
2023/12/26 03:03:19;;;;;;;13.57;5.17;;;8.40;99.90;;;6.04;100.00;99796.19;10461007;27;97084;-93
2023/12/26 03:08:23;;;;;;;10.10;4.10;;;8.10;99.90;;;5.88;100.00;99805.56;10449842;27;96602;-89
2023/12/26 03:13:27;;;;;;;12.33;5.20;;;7.90;99.90;;;5.68;100.00;99803.16;10440041;27;96509;-92
2023/12/26 03:18:30;;;;;;;9.20;4.20;;;7.70;99.90;;;5.52;100.00;99806.44;10410503;27;96660;-93
2023/12/26 03:23:35;;;;;;;12.93;5.63;;;7.50;99.90;;;5.36;100.00;99815.75;10442921;27;96527;-94
2023/12/26 03:28:38;;;;;;;11.90;5.67;;;7.40;99.90;;;5.12;100.00;99788.25;10446399;27;96737;-93
2023/12/26 03:33:42;;;;;;;14.70;5.73;;;7.20;99.90;;;5.05;100.00;99811.69;10419185;27;96622;-94
2023/12/26 03:38:45;;;;;;;12.90;6.37;;;7.00;99.90;;;4.96;100.00;99807.25;10447689;27;98181;-94
2023/12/26 03:43:49;;;;;;;10.60;5.17;;;6.90;99.90;;;4.87;100.00;99808.94;10462799;27;97913;-92
2023/12/26 03:48:52;;;;;;;10.20;4.80;;;6.80;99.90;;;4.86;100.00;99804.66;10465938;27;96523;-93
2023/12/26 03:53:56;;;;;;;14.93;5.20;;;6.80;99.90;;;4.83;100.00;99802.28;10469899;27;96718;-94
2023/12/26 03:59:00;;;;;;;9.77;5.03;;;6.80;99.90;;;4.75;100.00;99803.00;10471109;27;96576;-93
2023/12/26 04:04:05;;;;;;;9.97;5.40;;;6.70;99.90;;;4.64;100.00;99813.69;10438513;27;96959;-93
2023/12/26 04:09:09;;;;;;;9.00;4.90;;;6.60;99.90;;;4.50;100.00;99798.31;10462719;27;96563;-93
2023/12/26 04:14:12;;;;;;;11.17;5.70;;;6.50;99.90;;;4.38;100.00;99781.84;10433191;27;96731;-92
2023/12/26 04:19:16;;;;;;;12.23;6.40;;;6.30;99.90;;;4.31;100.00;99780.69;10438009;27;96749;-94
2023/12/26 04:24:20;;;;;;;10.20;5.57;;;6.20;99.90;;;4.27;100.00;99774.91;10441318;27;96705;-94
2023/12/26 04:29:23;;;;;;;13.57;5.70;;;6.20;99.90;;;4.13;100.00;99758.69;10446021;27;96555;-94
2023/12/26 04:34:27;;;;;;;13.67;5.80;;;6.20;99.90;;;4.14;100.00;99789.25;10450908;27;96495;-95
2023/12/26 04:39:31;;;;;;;16.17;6.27;;;6.10;99.90;;;3.99;100.00;99768.63;10467117;27;96853;-93
2023/12/26 04:44:35;;;;;;;18.53;6.90;;;6.00;99.90;;;3.89;100.00;99770.41;10435419;27;96693;-93
2023/12/26 04:49:39;;;;;;;15.03;6.93;;;5.90;99.90;;;3.84;100.00;99785.78;10427500;27;96704;-93
2023/12/26 04:54:43;;;;;;;12.27;6.23;;;5.90;99.90;;;3.75;100.00;99789.19;10451065;27;96677;-94
2023/12/26 04:59:46;;;;;;;19.20;6.77;;;5.70;99.90;;;3.61;100.00;99772.03;10454363;27;97223;-94
2023/12/26 05:04:50;;;;;;;24.63;9.03;;;5.70;99.90;;;3.58;100.00;99792.47;10451161;27;96742;-94
2023/12/26 05:09:53;;;;;;;22.33;7.83;;;5.60;99.90;;;3.46;100.00;99786.47;10453632;27;97990;-93
2023/12/26 05:14:57;;;;;;;17.57;7.13;;;5.60;99.90;;;3.39;100.00;99794.06;10441066;27;97529;-94
2023/12/26 05:20:01;;;;;;;24.40;8.07;;;5.50;99.90;;;3.30;100.00;99800.09;10462982;27;96630;-95
2023/12/26 05:25:24;;;;;;;23.00;9.23;;;5.40;99.90;;;3.15;100.00;99801.41;10449339;27;96515;-93
2023/12/26 05:30:28;;;;;;;26.40;10.93;;;5.30;99.90;;;3.13;100.00;99801.53;10464502;27;96578;-93
2023/12/26 05:35:31;;;;;;;26.23;10.97;;;5.10;99.90;;;3.00;100.00;99821.06;10482992;27;96453;-94
2023/12/26 05:40:35;;;;;;;20.53;8.20;;;5.00;99.90;;;2.90;100.00;99826.25;10521785;27;96205;-94
2023/12/26 05:45:38;;;;;;;23.00;9.30;;;4.90;99.90;;;2.79;100.00;99810.56;10481267;27;96386;-95
2023/12/26 05:50:41;;;;;;;18.30;8.13;;;4.80;99.90;;;2.65;100.00;99803.84;10439549;27;96536;-92
2023/12/26 05:55:45;;;;;;;19.73;8.77;;;4.70;99.90;;;2.50;100.00;99789.38;10430583;27;97867;-94
2023/12/26 06:00:48;;;;;;;22.43;9.57;;;4.60;99.90;;;2.50;100.00;99802.47;10455354;27;96635;-94
2023/12/26 06:05:52;;;;;;;26.20;10.90;;;4.60;99.90;;;2.47;100.00;99810.63;10445895;27;96635;-92
2023/12/26 06:10:56;;;;;;;29.90;11.13;;;4.50;99.90;;;2.38;100.00;99796.44;10454363;27;96532;-92
2023/12/26 06:15:59;;;;;;;25.83;11.77;;;4.40;99.90;;;2.38;100.00;99805.16;10425585;27;97373;-91
2023/12/26 06:21:03;;;;;;;42.60;17.03;;;4.40;99.90;;;2.31;100.00;99796.13;10438082;27;96608;-92
2023/12/26 06:26:07;;;;;;;34.77;14.83;;;4.30;99.90;;;2.23;100.00;99792.47;10437097;27;97248;-87
2023/12/26 06:31:14;;;;;;;28.47;12.40;;;4.20;99.90;;;2.14;100.00;99807.13;10446815;27;97948;-88
2023/12/26 06:36:18;;;;;;;37.90;14.83;;;4.20;99.90;;;2.14;100.00;99815.00;10454801;27;96521;-88
2023/12/26 06:41:21;;;;;;;26.57;12.10;;;4.10;99.90;;;2.10;100.00;99803.13;10428922;27;96568;-86
2023/12/26 06:46:25;;;;;;;22.63;11.10;;;4.10;99.90;;;2.10;100.00;99810.97;10451079;27;96594;-86
2023/12/26 06:51:29;;;;;;;26.13;11.60;;;4.10;99.90;;;2.11;100.00;99825.75;10421073;27;97880;-85
2023/12/26 06:56:33;;;;;;;32.13;12.27;;;4.10;99.90;;;2.14;100.00;99822.88;10436498;27;97186;-84
2023/12/26 07:01:36;;;;;;;21.70;11.00;;;4.10;99.90;;;2.27;100.00;99841.06;10432518;27;96601;-87
2023/12/26 07:06:40;;;;;;;24.53;8.30;;;4.10;99.90;;;2.32;100.00;99839.72;10442305;27;97161;-87
2023/12/26 07:11:43;;;;;;;18.30;8.80;;;4.20;99.90;;;2.34;100.00;99848.31;10436992;27;98116;-88
2023/12/26 07:16:46;;;;;;;19.33;8.43;;;4.20;99.90;;;2.36;100.00;99854.28;10453846;27;96619;-87
2023/12/26 07:21:51;;;;;;;23.73;9.60;;;4.20;99.90;;;2.45;100.00;99854.47;10437794;27;98171;-88
2023/12/26 07:26:55;;;;;;;25.20;11.43;;;4.30;99.90;;;2.56;100.00;99843.94;10449630;27;98601;-88
2023/12/26 07:31:58;;;;;;;27.43;12.57;;;4.40;99.90;;;2.67;100.00;99843.91;10442432;27;97340;-87
2023/12/26 07:37:01;;;;;;;32.67;15.77;;;4.50;99.90;;;3.15;100.00;99846.88;10441407;27;98418;-87
2023/12/26 07:42:05;;;;;;;39.03;17.00;;;4.80;99.90;;;3.83;100.00;99847.19;10439150;27;96961;-89
2023/12/26 07:47:09;;;;;;;26.20;13.73;;;5.20;99.90;;;4.25;100.00;99865.41;10444867;27;97602;-87
2023/12/26 07:52:12;;;;;;;26.93;12.20;;;5.60;99.90;;;4.58;100.00;99861.59;10430031;27;98053;-86
2023/12/26 07:57:16;;;;;;;27.30;10.67;;;5.90;99.90;;;5.03;100.00;99861.84;10431333;27;96875;-88
2023/12/26 08:02:20;;;;;;;20.57;9.73;;;6.10;99.90;;;5.53;100.00;99859.00;10441410;27;97927;-87
2023/12/26 08:07:23;;;;;;;17.53;9.47;;;6.50;99.90;;;6.14;100.00;99868.19;10439674;27;97083;-88
2023/12/26 08:12:27;;;;;;;19.43;9.40;;;7.00;99.90;;;6.43;100.00;99860.09;10442226;27;96657;-88
2023/12/26 08:17:30;;;;;;;16.23;8.40;;;7.30;99.90;;;6.21;100.00;99861.34;10447145;27;97061;-87
2023/12/26 08:22:34;;;;;;;17.77;8.20;;;7.30;99.90;;;6.50;100.00;99857.69;10461614;27;98287;-87
2023/12/26 08:27:37;;;;;;;14.30;8.67;;;7.50;99.90;;;6.99;100.00;99856.31;10425618;27;96794;-88
2023/12/26 08:32:41;;;;;;;12.13;6.30;;;7.80;99.90;;;7.42;100.00;99870.47;10428728;27;98557;-87
2023/12/26 08:37:44;;;;;;;12.17;6.47;;;8.30;99.90;;;7.77;100.00;99862.41;10445117;27;97105;-85
2023/12/26 08:42:55;;;;;;;14.00;5.87;;;8.70;99.90;;;8.21;100.00;99842.91;10439365;27;98039;-86
2023/12/26 08:48:02;;;;;;;12.17;5.47;;;9.10;99.90;;;8.57;100.00;99852.28;10424848;27;96984;-87
2023/12/26 08:53:05;;;;;;;10.83;4.80;;;9.50;99.90;;;8.74;100.00;99874.31;10447086;27;98284;-86
2023/12/26 08:58:09;;;;;;;11.17;6.00;;;9.70;99.90;;;8.27;100.00;99866.91;10452568;27;96657;-86
2023/12/26 09:03:12;;;;;;;10.67;5.90;;;9.50;99.90;;;7.72;100.00;99880.56;10431101;27;96833;-86
2023/12/26 09:08:16;;;;;;;18.47;7.77;;;9.10;99.90;;;7.23;100.00;99893.47;10434944;27;98283;-84
2023/12/26 09:13:21;;;;;;;15.63;7.23;;;8.80;99.90;;;7.02;100.00;99887.72;10430791;27;96714;-85
2023/12/26 09:18:24;;;;;;;12.93;7.43;;;8.70;99.90;;;7.03;100.00;99876.16;10425039;27;97231;-86
2023/12/26 09:23:29;;;;;;;13.10;7.00;;;8.70;99.90;;;7.00;100.00;99881.72;10426806;27;96852;-86
2023/12/26 09:28:38;;;;;;;14.63;7.53;;;8.60;99.90;;;6.86;100.00;99869.91;10434480;27;97028;-86
2023/12/26 09:33:41;;;;;;;12.10;7.43;;;8.60;99.90;;;6.79;100.00;99895.28;10457021;27;96901;-83
2023/12/26 09:38:45;;;;;;;16.53;8.30;;;8.60;99.90;;;6.73;100.00;99900.31;10419646;27;97087;-86
2023/12/26 09:43:48;;;;;;;11.27;7.20;;;8.50;99.90;;;6.69;100.00;99911.16;10436630;27;96682;-85
2023/12/26 09:48:52;;;;;;;18.33;8.07;;;8.50;99.90;;;6.64;100.00;99918.72;10415014;27;96561;-86
2023/12/26 09:53:57;;;;;;;16.10;7.43;;;8.50;99.90;;;6.65;100.00;99920.38;10422041;27;96470;-86
2023/12/26 09:59:03;;;;;;;14.07;7.77;;;8.40;99.90;;;6.65;100.00;99914.25;10454290;27;97079;-86
2023/12/26 10:04:07;;;;;;;16.47;7.40;;;8.50;99.90;;;6.76;100.00;99924.59;10455694;27;96650;-86
2023/12/26 10:09:11;;;;;;;14.83;6.67;;;8.50;99.90;;;6.87;100.00;99908.53;10443481;27;96615;-85
2023/12/26 10:14:30;;;;;;;13.00;6.77;;;8.70;99.90;;;7.00;100.00;99889.66;10441475;27;97094;-85
2023/12/26 10:19:33;;;;;;;12.07;7.10;;;8.80;99.90;;;7.10;100.00;99887.78;10437045;27;96517;-86
2023/12/26 10:24:39;;;;;;;18.03;7.37;;;8.80;99.90;;;7.17;100.00;99867.66;10450399;27;96489;-86
2023/12/26 10:29:54;;;;;;;16.87;8.30;;;8.90;99.90;;;7.25;100.00;99869.53;10453694;27;96640;-86
2023/12/26 10:35:15;;;;;;;14.50;6.80;;;9.00;99.90;;;7.29;100.00;99870.06;10464084;27;97419;-86
2023/12/26 10:40:18;;;;;;;12.90;6.10;;;9.10;99.90;;;7.30;100.00;99863.78;10453504;27;97777;-85
2023/12/26 10:45:23;;;;;;;15.47;6.40;;;9.10;99.90;;;7.23;100.00;99860.94;10429161;27;97527;-86
2023/12/26 10:50:28;;;;;;;16.40;6.67;;;9.10;99.90;;;7.17;100.00;99856.28;10424925;27;96537;-85
2023/12/26 10:55:34;;;;;;;11.97;6.37;;;9.00;99.90;;;7.16;100.00;99860.72;10432887;27;97297;-86
2023/12/26 13:51:43;;;;;;;2.93;1.20;;;11.50;99.90;;;9.74;80.63;99882.88;10444637;27;97575;-91
2023/12/26 13:57:44;;;;;;;2.77;1.03;;;11.50;99.50;;;9.75;74.78;99883.69;10450764;27;98314;-92
2023/12/26 14:03:50;;;;;;;2.70;1.00;;;11.50;97.90;;;9.75;70.91;99894.31;10451715;27;97418;-91
2023/12/26 14:09:51;;;;;;;1.83;0.80;;;11.60;96.60;;;9.73;70.01;99907.75;10452695;27;97280;-89
2023/12/26 14:14:54;;;;;;;1.30;0.40;;;11.50;95.40;;;9.60;70.82;99907.47;10445679;27;98244;-92
2023/12/26 14:20:54;;;;;;;3.77;1.77;;;11.50;95.90;;;9.49;69.38;99913.13;10439816;27;96772;-92
2023/12/26 14:26:54;;;;;;;1.57;0.40;;;11.30;96.20;;;9.37;72.47;99916.09;10437866;27;98715;-90
2023/12/26 14:32:53;;;;;;;1.63;0.60;;;11.20;95.50;;;9.31;72.83;99930.03;10450340;27;98253;-90
2023/12/26 14:37:57;;;;;;;2.13;1.23;;;11.20;95.90;;;9.26;74.26;99927.03;10453870;27;97943;-91
2023/12/26 14:43:01;;;;;;;1.50;0.70;;;11.10;96.20;;;9.22;73.32;99936.31;10459291;27;98173;-92
2023/12/26 14:49:01;;;;;;;1.73;1.03;;;11.10;96.20;;;9.19;72.38;99944.59;10446647;27;97693;-91
2023/12/26 14:55:01;;;;;;;1.53;0.60;;;11.00;96.40;;;9.13;76.16;99958.53;10470589;27;96540;-91
2023/12/26 15:01:01;;;;;;;3.23;1.27;;;11.00;96.70;;;9.02;77.27;99964.13;10432442;27;96747;-90
2023/12/26 15:06:05;;;;;;;2.43;0.97;;;10.90;97.00;;;8.89;77.12;99955.84;10430273;27;96536;-91
2023/12/26 15:11:16;;;;;;;1.17;0.60;;;10.80;97.30;;;8.78;79.72;99949.84;10454833;27;96643;-91
2023/12/26 15:16:20;;;;;;;1.83;0.80;;;10.60;97.70;;;8.72;80.41;99961.09;10453751;27;97773;-91
2023/12/26 15:21:23;;;;;;;3.33;0.90;;;10.60;97.90;;;8.60;82.29;99967.69;10429639;27;99907;-91
2023/12/26 15:26:27;;;;;;;4.03;1.57;;;10.50;98.10;;;8.56;82.34;99977.75;10439162;27;97913;-93
2023/12/26 15:31:32;;;;;;;2.23;0.70;;;10.40;98.30;;;8.48;83.40;99988.31;10453388;27;96549;-92
2023/12/26 15:36:38;;;;;;;1.57;0.73;;;10.30;98.60;;;8.44;84.44;99989.63;10441526;27;96865;-92
2023/12/26 15:41:42;;;;;;;1.90;0.90;;;10.30;98.80;;;8.39;85.04;99996.38;10447086;27;96578;-94
2023/12/26 15:46:46;;;;;;;5.17;2.30;;;10.20;99.00;;;8.34;84.96;99999.50;10491363;27;96486;-92
2023/12/26 15:51:49;;;;;;;1.30;0.87;;;10.20;99.20;;;8.27;84.34;99998.44;10498997;27;96228;-92
2023/12/26 15:56:53;;;;;;;1.63;0.80;;;10.20;99.30;;;8.25;87.65;100021.59;10463489;27;96610;-92
2023/12/26 16:01:56;;;;;;;3.80;1.43;;;10.10;99.60;;;8.28;85.71;100024.78;10446416;27;96481;-90
2023/12/26 16:07:00;;;;;;;3.00;1.27;;;10.10;99.60;;;8.22;88.44;100032.53;10445874;27;96566;-90
2023/12/26 16:12:04;;;;;;;5.03;1.90;;;10.00;99.90;;;8.18;88.28;100034.66;10437175;27;96864;-90
2023/12/26 16:17:07;;;;;;;4.27;1.60;;;10.00;99.90;;;8.17;89.57;100045.41;10437691;27;96538;-89
2023/12/26 16:22:11;;;;;;;5.23;1.30;;;10.00;99.90;;;8.17;88.88;100035.63;10438229;27;98673;-90
2023/12/26 16:27:16;;;;;;;4.53;1.43;;;10.00;99.90;;;8.22;89.74;100049.25;10430338;27;96764;-90
2023/12/26 16:32:19;;;;;;;2.40;0.80;;;10.00;99.90;;;8.24;89.34;100039.31;10447574;27;96661;-90
2023/12/26 16:37:25;;;;;;;1.77;0.70;;;10.00;99.90;;;8.27;89.68;100054.88;10428521;27;97914;-89
2023/12/26 16:42:28;;;;;;;2.20;0.87;;;10.10;99.90;;;8.24;90.53;100044.59;10435399;27;97503;-89
2023/12/26 16:47:32;;;;;;;6.03;2.03;;;10.10;99.90;;;8.17;91.39;100043.56;10447087;27;96916;-89
2023/12/26 16:52:35;;;;;;;4.77;1.80;;;10.00;99.90;;;8.06;91.89;100043.84;10428828;27;96567;-90
2023/12/26 16:57:39;;;;;;;3.63;1.50;;;9.90;99.90;;;7.94;93.46;100053.00;10451668;27;98416;-89
2023/12/26 17:02:42;;;;;;;2.20;1.20;;;9.80;99.90;;;7.84;94.82;100060.19;10448546;27;96865;-89
2023/12/26 17:07:46;;;;;;;3.90;1.27;;;9.70;99.90;;;7.68;96.32;100064.38;10431044;27;96803;-88
2023/12/26 17:12:49;;;;;;;6.20;1.70;;;9.60;99.90;;;7.62;97.94;100074.75;10447552;27;97246;-89
2023/12/26 17:17:54;;;;;;;3.50;1.40;;;9.50;99.90;;;7.56;99.24;100099.13;10453164;27;96746;-90
2023/12/26 17:22:57;;;;;;;3.33;1.63;;;9.40;99.90;;;7.49;99.24;100114.75;10444660;27;96544;-90
2023/12/26 17:28:03;;;;;;;2.50;1.53;;;9.40;99.90;;;7.54;99.55;100130.19;10426709;27;96582;-88
2023/12/26 17:33:06;;;;;;;3.83;1.60;;;9.40;99.90;;;7.59;100.00;100112.06;10448778;27;96560;-89
2023/12/26 17:38:10;;;;;;;4.77;1.93;;;9.40;99.90;;;7.62;99.42;100131.13;10443370;27;97343;-91
2023/12/26 17:43:14;;;;;;;13.40;4.37;;;9.40;99.90;;;7.69;98.52;100121.59;10439283;27;96710;-90
2023/12/26 17:48:18;;;;;;;5.70;2.63;;;9.50;99.90;;;7.71;98.86;100116.97;10445372;27;98297;-89
2023/12/26 17:53:21;;;;;;;3.47;1.43;;;9.50;99.90;;;7.67;98.63;100122.69;10452156;27;96731;-88
2023/12/26 17:58:28;;;;;;;6.00;1.97;;;9.50;99.90;;;7.60;99.68;100135.69;10437710;27;98288;-89
2023/12/26 18:03:32;;;;;;;3.93;1.70;;;9.50;99.90;;;7.48;100.00;100144.84;10424215;27;98301;-90
2023/12/26 18:08:39;;;;;;;3.50;1.90;;;9.30;99.90;;;7.45;100.00;100163.66;10419011;27;97946;-89
2023/12/26 18:13:42;;;;;;;2.27;1.30;;;9.30;99.90;;;7.35;100.00;100155.75;10444470;27;97882;-90
2023/12/26 18:18:45;;;;;;;11.07;4.07;;;9.20;99.90;;;7.30;100.00;100154.53;10445889;27;96626;-90
2023/12/26 18:23:49;;;;;;;3.03;1.07;;;9.20;99.90;;;7.22;100.00;100165.88;10451394;27;98006;-90
2023/12/26 18:28:52;;;;;;;3.90;1.13;;;9.10;99.90;;;7.11;100.00;100158.97;10442279;27;98152;-84
2023/12/26 18:33:56;;;;;;;2.80;1.80;;;9.00;99.90;;;7.00;100.00;100164.44;10458765;27;97902;-85
2023/12/26 18:38:59;;;;;;;4.10;1.70;;;8.90;99.90;;;6.84;100.00;100164.22;10469263;27;96689;-85
2023/12/26 18:44:03;;;;;;;2.63;1.40;;;8.80;99.90;;;6.68;100.00;100170.09;10467982;27;97807;-85
2023/12/26 18:49:07;;;;;;;2.03;1.00;;;8.60;99.90;;;6.78;100.00;100183.25;10466245;27;96610;-85
2023/12/26 18:54:11;;;;;;;1.67;1.03;;;8.60;99.90;;;6.92;100.00;100194.22;10445730;27;97710;-86
2023/12/26 18:59:15;;;;;;;4.13;1.27;;;8.70;99.90;;;7.03;100.00;100197.66;10475405;27;96688;-85
2023/12/26 19:04:19;;;;;;;2.83;1.47;;;8.80;99.90;;;7.05;100.00;100195.69;10477587;27;96631;-85
2023/12/26 19:09:23;;;;;;;2.93;1.03;;;8.90;99.90;;;7.03;100.00;100193.22;10458412;27;98311;-85
2023/12/26 19:14:26;;;;;;;2.83;1.10;;;8.90;99.90;;;7.00;100.00;100188.19;10454282;27;97891;-85
2023/12/26 19:19:29;;;;;;;3.57;1.40;;;8.80;99.90;;;7.08;100.00;100185.69;10462249;27;97199;-89
2023/12/26 19:24:33;;;;;;;2.47;1.13;;;8.90;99.90;;;7.08;100.00;100190.97;10468647;27;96556;-87
2023/12/26 19:29:36;;;;;;;2.97;1.30;;;8.90;99.90;;;7.16;100.00;100193.72;10459269;27;97923;-89
2023/12/26 19:34:40;;;;;;;1.97;0.87;;;9.00;99.90;;;7.28;100.00;100194.34;10476902;27;97104;-87
2023/12/26 19:39:43;;;;;;;1.57;0.90;;;9.10;99.90;;;7.38;100.00;100196.97;10489556;27;98071;-89
2023/12/26 19:44:47;;;;;;;2.90;1.30;;;9.20;99.90;;;7.37;100.00;100209.31;10479132;27;96577;-89
2023/12/26 19:49:51;;;;;;;2.00;1.10;;;9.20;99.90;;;7.32;100.00;100223.97;10468620;27;96758;-88
2023/12/26 19:54:55;;;;;;;3.33;1.00;;;9.10;99.90;;;7.25;100.00;100227.16;10458022;27;96830;-89
2023/12/26 19:59:58;;;;;;;2.63;1.13;;;9.10;99.90;;;7.39;100.00;100225.06;10460674;27;97940;-86
2023/12/26 20:05:03;;;;;;;2.37;1.00;;;9.10;99.90;;;7.43;100.00;100227.22;10465028;27;98649;-87
2023/12/26 20:10:08;;;;;;;2.47;1.13;;;9.20;99.90;;;7.47;100.00;100233.06;10466032;27;96893;-88
2023/12/26 20:15:11;;;;;;;4.60;0.87;;;9.30;99.90;;;7.51;100.00;100248.50;10438293;27;96829;-89
2023/12/26 20:20:17;;;;;;;2.10;0.97;;;9.30;99.90;;;7.53;100.00;100258.94;10438486;27;97377;-87
2023/12/26 20:25:21;;;;;;;3.00;0.77;;;9.30;99.90;;;7.62;100.00;100260.69;10433168;27;97292;-87
2023/12/26 20:30:25;;;;;;;2.03;0.83;;;9.40;99.90;;;7.70;100.00;100259.97;10445959;27;98375;-87
2023/12/26 20:35:29;;;;;;;1.90;0.63;;;9.50;99.90;;;7.72;100.00;100261.47;10425324;27;96864;-88
2023/12/26 20:40:32;;;;;;;4.30;1.07;;;9.50;99.90;;;7.73;100.00;100271.06;10428981;27;96629;-88
2023/12/26 20:45:36;;;;;;;3.50;0.70;;;9.60;99.90;;;7.83;99.58;100272.84;10443510;27;98114;-87
2023/12/26 20:50:41;;;;;;;0.73;0.50;;;9.60;99.90;;;7.97;96.38;100272.31;10437552;27;98740;-87
2023/12/26 20:55:45;;;;;;;2.20;0.70;;;9.70;99.90;;;8.02;93.99;100296.53;10425991;27;98602;-88
2023/12/26 21:00:48;;;;;;;1.67;0.70;;;9.80;99.90;;;7.97;93.12;100296.97;10440148;27;96979;-88
2023/12/26 21:05:51;;;;;;;2.63;0.87;;;9.70;99.90;;;7.88;94.44;100294.38;10446386;27;96654;-89
2023/12/26 21:10:57;;;;;;;1.37;0.70;;;9.70;99.90;;;7.90;92.88;100297.72;10434416;27;96734;-88
2023/12/26 21:16:00;;;;;;;2.17;0.70;;;9.70;99.90;;;7.93;91.36;100289.50;10430276;27;97685;-89
2023/12/26 21:21:05;;;;;;;1.97;0.63;;;9.80;99.90;;;7.97;91.53;100290.84;10436609;27;98623;-88
2023/12/26 21:26:16;;;;;;;1.60;0.90;;;9.80;99.90;;;7.88;92.75;100300.50;10440192;27;96787;-88
2023/12/26 21:31:20;;;;;;;1.50;0.65;;;9.70;99.90;;;7.79;93.20;100310.16;10436115;27;97985;-88
2023/12/26 21:36:26;;;;;;;1.83;0.83;;;9.70;99.90;;;7.71;92.86;100293.34;10436406;27;98689;-90
2023/12/26 21:41:30;;;;;;;2.70;0.60;;;9.50;99.90;;;7.64;92.50;100311.63;10437533;27;98248;-86
2023/12/26 21:46:33;;;;;;;1.57;0.80;;;9.50;99.90;;;7.68;91.98;100310.38;10442052;27;98621;-87
2023/12/26 21:51:36;;;;;;;2.57;0.80;;;9.50;99.90;;;7.69;93.74;100321.78;10449651;27;97692;-91
2023/12/26 21:56:40;;;;;;;1.47;0.70;;;9.50;99.90;;;7.61;92.99;100314.56;10453697;27;96932;-91
2023/12/26 22:01:43;;;;;;;1.30;0.80;;;9.40;99.90;;;7.44;93.88;100310.88;10446908;27;96671;-90
2023/12/26 22:06:48;;;;;;;0.73;0.50;;;9.30;99.90;;;7.29;97.44;100322.88;10447505;27;96732;-90
2023/12/26 22:11:51;;;;;;;1.93;0.60;;;9.10;99.90;;;7.15;99.40;100341.84;10438884;27;96745;-91
2023/12/26 22:16:56;;;;;;;1.03;0.47;;;9.00;99.90;;;7.02;100.00;100339.50;10451364;27;98252;-91
2023/12/26 22:21:59;;;;;;;2.03;0.70;;;8.90;99.90;;;6.87;100.00;100346.19;10433782;27;98386;-90
2023/12/26 22:27:03;;;;;;;1.90;1.03;;;8.70;99.90;;;6.77;100.00;100353.28;10452550;27;97722;-90
2023/12/26 22:32:06;;;;;;;1.23;0.50;;;8.60;99.90;;;6.70;100.00;100356.47;10445783;27;96623;-90
2023/12/26 22:37:11;;;;;;;2.43;0.77;;;8.50;99.90;;;6.62;100.00;100359.00;10453508;27;96929;-91
2023/12/26 22:42:14;;;;;;;5.30;0.60;;;8.50;99.90;;;6.58;100.00;100368.16;10434558;27;98603;-91
2023/12/26 22:47:18;;;;;;;1.90;0.90;;;8.40;99.90;;;6.54;100.00;100371.22;10435909;27;97534;-93
2023/12/26 22:52:22;;;;;;;2.73;1.07;;;8.40;99.90;;;6.47;100.00;100365.63;10425169;27;96721;-91
2023/12/26 22:57:25;;;;;;;3.33;1.00;;;8.40;99.90;;;6.43;100.00;100366.91;10444914;27;96665;-92
2023/12/26 23:02:28;;;;;;;1.57;0.53;;;8.30;99.90;;;6.45;100.00;100367.59;10449551;27;97676;-92
2023/12/26 23:07:32;;;;;;;1.53;0.63;;;8.30;99.90;;;6.69;100.00;100367.19;10437807;27;97865;-91
2023/12/26 23:12:36;;;;;;;1.60;0.70;;;8.50;99.90;;;6.84;100.00;100381.66;10465721;27;96653;-91
2023/12/26 23:17:39;;;;;;;0.63;0.40;;;8.60;99.90;;;6.87;100.00;100389.28;10497702;27;96592;-92
2023/12/26 23:22:42;;;;;;;1.23;0.60;;;8.70;99.90;;;6.91;100.00;100385.41;10461700;27;96651;-91
2023/12/26 23:27:45;;;;;;;1.97;0.50;;;8.70;99.90;;;7.02;100.00;100371.22;10464399;27;97805;-93
2023/12/26 23:32:49;;;;;;;1.17;0.50;;;8.80;99.90;;;7.13;100.00;100381.63;10451261;27;97944;-92
2023/12/26 23:37:52;;;;;;;1.23;0.40;;;8.90;99.90;;;7.12;100.00;100379.94;10461564;27;98018;-92
2023/12/26 23:42:56;;;;;;;1.90;0.87;;;8.90;99.90;;;7.08;100.00;100386.50;10450421;27;97730;-91
2023/12/26 23:47:59;;;;;;;2.03;0.53;;;8.90;99.90;;;7.01;100.00;100388.03;10463397;27;96603;-92
2023/12/26 23:53:03;;;;;;;1.47;0.60;;;8.80;99.90;;;6.91;100.00;100387.22;10468397;27;96710;-91
2023/12/26 23:58:10;;;;;;;1.90;0.77;;;8.70;99.90;;;6.82;100.00;100390.69;10464582;27;96479;-90
